createdAt,value
2022-09-28T00:00:47.665Z,94.75
2022-09-28T00:03:14.380Z,94.96
2022-09-28T00:05:41.097Z,94.75
2022-09-28T00:08:07.891Z,94.83
2022-09-28T00:10:34.940Z,94.51
2022-09-28T00:13:01.867Z,94.88
2022-09-28T00:15:29.209Z,94.69
2022-09-28T00:17:56.004Z,95.05
2022-09-28T00:20:22.781Z,94.75
2022-09-28T00:22:49.546Z,94.86
2022-09-28T00:25:16.941Z,94.55
2022-09-28T00:27:50.137Z,94.70
2022-09-28T00:30:17.084Z,94.62
2022-09-28T00:32:43.963Z,94.81
2022-09-28T00:35:10.970Z,94.55
2022-09-28T00:37:38.084Z,94.52
2022-09-28T00:40:05.416Z,94.35
2022-09-28T00:42:32.089Z,94.72
2022-09-28T00:44:59.743Z,94.93
2022-09-28T00:47:41.425Z,94.75
2022-09-28T00:50:18.249Z,94.75
2022-09-28T00:52:55.388Z,94.95
2022-09-28T00:55:45.000Z,94.96
2022-09-28T00:58:19.770Z,95.20
2022-09-28T01:00:46.437Z,95.05
2022-09-28T01:03:14.442Z,95.20
2022-09-28T01:05:41.605Z,95.20
2022-09-28T01:08:09.934Z,95.26
2022-09-28T01:10:36.667Z,95.18
2022-09-28T01:13:03.350Z,94.98
2022-09-28T01:15:34.590Z,95.01
2022-09-28T01:18:13.258Z,95.01
2022-09-28T01:20:53.382Z,95.16
2022-09-28T01:23:48.623Z,94.88
2022-09-28T01:26:34.833Z,94.91
2022-09-28T01:29:13.447Z,95.08
2022-09-28T01:31:44.343Z,94.97
2022-09-28T01:34:17.489Z,94.89
2022-09-28T01:36:49.172Z,94.87
2022-09-28T01:39:18.804Z,94.76
2022-09-28T01:41:49.310Z,94.74
2022-09-28T01:44:19.662Z,94.91
2022-09-28T01:46:49.064Z,94.72
2022-09-28T01:49:24.159Z,95.01
2022-09-28T01:52:00.874Z,94.90
2022-09-28T01:54:35.088Z,94.71
2022-09-28T01:57:14.111Z,94.91
2022-09-28T01:59:49.560Z,94.76
2022-09-28T02:02:22.334Z,94.54
2022-09-28T02:05:04.760Z,94.69
2022-09-28T02:07:43.401Z,94.78
2022-09-28T02:10:15.975Z,94.65
2022-09-28T02:13:00.613Z,94.64
2022-09-28T02:15:37.285Z,94.54
2022-09-28T02:18:04.447Z,94.65
2022-09-28T02:20:34.271Z,94.75
2022-09-28T02:23:03.421Z,94.94
2022-09-28T02:25:50.455Z,94.99
2022-09-28T02:28:17.253Z,95.00
2022-09-28T02:30:46.057Z,94.86
2022-09-28T02:33:35.279Z,94.75
2022-09-28T02:36:03.603Z,94.67
2022-09-28T02:38:31.295Z,94.46
2022-09-28T02:41:32.111Z,96.55
2022-09-28T02:44:11.246Z,93.95
2022-09-28T02:46:48.530Z,94.46
2022-09-28T02:49:36.423Z,94.46
2022-09-28T02:52:25.252Z,94.56
2022-09-28T02:55:18.677Z,94.53
2022-09-28T02:57:48.424Z,94.62
2022-09-28T03:00:19.047Z,94.65
2022-09-28T03:03:13.670Z,94.62
2022-09-28T03:06:14.859Z,94.23
2022-09-28T03:08:52.947Z,94.22
2022-09-28T03:11:25.080Z,94.04
2022-09-28T03:13:52.158Z,94.09
2022-09-28T03:16:20.547Z,94.01
2022-09-28T03:18:47.460Z,94.04
2022-09-28T03:21:15.261Z,93.91
2022-09-28T03:23:42.834Z,93.90
2022-09-28T03:26:16.491Z,94.01
2022-09-28T03:28:43.444Z,94.22
2022-09-28T03:31:10.199Z,94.18
2022-09-28T03:33:36.893Z,94.37
2022-09-28T03:36:03.790Z,94.85
2022-09-28T03:38:30.468Z,95.15
2022-09-28T03:40:59.054Z,94.86
2022-09-28T03:43:27.364Z,94.78
2022-09-28T03:45:55.528Z,94.73
2022-09-28T03:48:41.533Z,94.65
2022-09-28T03:51:10.412Z,94.75
2022-09-28T03:53:37.431Z,94.56
2022-09-28T03:56:15.389Z,94.56
2022-09-28T03:58:42.119Z,94.76
2022-09-28T04:01:16.910Z,94.66
2022-09-28T04:03:44.560Z,94.55
2022-09-28T04:06:11.964Z,94.48
2022-09-28T04:08:38.950Z,94.62
2022-09-28T04:11:05.895Z,94.72
2022-09-28T04:13:32.699Z,94.75
2022-09-28T04:16:01.282Z,94.65
2022-09-28T04:18:28.912Z,94.72
2022-09-28T04:21:06.747Z,94.62
2022-09-28T04:23:37.359Z,94.73
2022-09-28T04:26:06.061Z,94.41
2022-09-28T04:28:51.739Z,94.46
2022-09-28T04:31:22.056Z,94.78
2022-09-28T04:33:48.859Z,94.11
2022-09-28T04:36:15.625Z,94.29
2022-09-28T04:38:52.958Z,94.67
2022-09-28T04:41:22.593Z,94.62
2022-09-28T04:43:50.191Z,94.93
2022-09-28T04:46:17.218Z,95.07
2022-09-28T04:48:45.379Z,94.89
2022-09-28T04:51:12.021Z,94.72
2022-09-28T04:53:38.789Z,94.56
2022-09-28T04:56:07.885Z,94.13
2022-09-28T04:58:35.491Z,94.35
2022-09-28T05:01:08.357Z,94.17
2022-09-28T05:03:35.609Z,94.18
2022-09-28T05:06:02.549Z,94.24
2022-09-28T05:08:29.781Z,94.49
2022-09-28T05:11:01.290Z,94.84
2022-09-28T05:13:29.019Z,94.81
2022-09-28T05:15:59.665Z,94.54
2022-09-28T05:18:28.436Z,93.88
2022-09-28T05:20:55.176Z,93.89
2022-09-28T05:23:21.984Z,94.43
2022-09-28T05:25:48.824Z,94.44
2022-09-28T05:28:24.107Z,94.47
2022-09-28T05:30:50.880Z,94.62
2022-09-28T05:33:17.627Z,94.94
2022-09-28T05:35:44.599Z,94.52
2022-09-28T05:38:11.268Z,93.75
2022-09-28T05:40:38.023Z,93.68
2022-09-28T05:43:04.813Z,93.94
2022-09-28T05:45:31.642Z,93.73
2022-09-28T05:47:58.433Z,93.54
2022-09-28T05:50:25.067Z,93.66
2022-09-28T05:53:03.144Z,95.49
2022-09-28T05:55:30.492Z,94.52
2022-09-28T05:58:01.792Z,92.86
2022-09-28T06:00:29.795Z,93.26
2022-09-28T06:03:21.193Z,93.66
2022-09-28T06:05:48.009Z,94.34
2022-09-28T06:08:15.007Z,94.62
2022-09-28T06:10:41.891Z,94.17
2022-09-28T06:13:10.570Z,93.84
2022-09-28T06:15:37.914Z,93.33
2022-09-28T06:18:07.419Z,92.97
2022-09-28T06:20:36.612Z,93.53
2022-09-28T06:23:04.495Z,93.60
2022-09-28T06:25:31.973Z,93.92
2022-09-28T06:28:04.192Z,93.66
2022-09-28T06:30:33.564Z,94.06
2022-09-28T06:33:02.051Z,93.32
2022-09-28T06:35:31.063Z,92.86
2022-09-28T06:37:59.403Z,92.27
2022-09-28T06:40:26.887Z,92.38
2022-09-28T06:43:00.648Z,92.61
2022-09-28T06:45:29.558Z,92.83
2022-09-28T06:47:58.399Z,92.15
2022-09-28T06:50:33.494Z,92.18
2022-09-28T06:53:01.489Z,92.16
2022-09-28T06:55:28.890Z,92.08
2022-09-28T06:58:02.823Z,91.79
2022-09-28T07:00:32.931Z,91.89
2022-09-28T07:03:01.930Z,91.76
2022-09-28T07:05:29.470Z,91.59
2022-09-28T07:07:57.286Z,91.54
2022-09-28T07:10:28.724Z,91.25
2022-09-28T07:12:56.903Z,91.31
2022-09-28T07:15:24.950Z,91.52
2022-09-28T07:18:02.756Z,92.01
2022-09-28T07:20:31.926Z,91.69
2022-09-28T07:23:13.113Z,91.39
2022-09-28T07:25:45.680Z,91.92
2022-09-28T07:28:12.683Z,91.59
2022-09-28T07:30:39.932Z,91.76
2022-09-28T07:33:09.405Z,91.62
2022-09-28T07:35:36.110Z,91.37
2022-09-28T07:38:07.416Z,90.85
2022-09-28T07:40:54.518Z,91.43
2022-09-28T07:43:22.535Z,90.21
2022-09-28T07:45:52.404Z,90.98
2022-09-28T07:48:19.825Z,91.11
2022-09-28T07:50:55.105Z,91.06
2022-09-28T07:53:23.550Z,91.20
2022-09-28T07:56:02.166Z,91.44
2022-09-28T07:58:29.291Z,91.71
2022-09-28T08:00:56.265Z,91.83
2022-09-28T08:03:23.272Z,91.85
2022-09-28T08:05:50.014Z,92.84
2022-09-28T08:08:16.876Z,90.36
2022-09-28T08:10:46.897Z,89.39
2022-09-28T08:13:15.147Z,89.73
2022-09-28T08:15:42.727Z,89.27
2022-09-28T08:18:09.870Z,89.31
2022-09-28T08:20:55.248Z,87.82
2022-09-28T08:23:23.243Z,87.56
2022-09-28T08:25:53.893Z,87.50
2022-09-28T08:28:22.576Z,86.58
2022-09-28T08:30:50.113Z,86.50
2022-09-28T08:33:18.386Z,86.04
2022-09-28T08:35:46.749Z,85.26
2022-09-28T08:38:14.378Z,84.02
2022-09-28T08:40:57.547Z,83.57
2022-09-28T08:43:43.687Z,82.99
2022-09-28T08:46:12.477Z,81.66
2022-09-28T08:49:13.457Z,80.46
2022-09-28T08:51:47.981Z,78.49
2022-09-28T08:54:18.455Z,76.41
2022-09-28T08:56:50.325Z,74.02
2022-09-28T08:59:22.257Z,72.99
2022-09-28T09:02:04.226Z,71.52
2022-09-28T09:04:33.787Z,68.41
2022-09-28T09:07:29.524Z,69.34
2022-09-28T09:10:05.573Z,67.71
2022-09-28T09:12:35.206Z,66.77
2022-09-28T09:15:28.429Z,65.88
2022-09-28T09:18:08.431Z,67.15
2022-09-28T09:20:50.482Z,66.62
2022-09-28T09:23:35.174Z,66.07
2022-09-28T09:26:21.511Z,66.91
2022-09-28T09:29:25.691Z,68.94
2022-09-28T09:32:11.162Z,67.16
2022-09-28T09:35:05.521Z,68.99
2022-09-28T09:38:00.151Z,70.66
2022-09-28T09:40:44.056Z,69.81
2022-09-28T09:43:35.484Z,71.16
2022-09-28T09:46:30.000Z,71.11
2022-09-28T09:49:20.525Z,69.93
2022-09-28T09:52:03.248Z,69.55
2022-09-28T09:54:42.776Z,69.47
2022-09-28T09:57:20.291Z,68.97
2022-09-28T09:59:48.360Z,71.40
2022-09-28T10:02:26.141Z,71.64
2022-09-28T10:05:01.142Z,67.40
2022-09-28T10:07:43.712Z,68.17
2022-09-28T10:10:28.767Z,69.89
2022-09-28T10:12:56.382Z,70.90
2022-09-28T10:15:29.475Z,71.47
2022-09-28T10:18:00.455Z,70.47
2022-09-28T10:20:32.008Z,68.60
2022-09-28T10:23:02.007Z,70.19
2022-09-28T10:25:33.192Z,75.07
2022-09-28T10:28:01.231Z,72.09
2022-09-28T10:30:28.438Z,73.66
2022-09-28T10:32:59.332Z,70.71
2022-09-28T10:35:47.792Z,71.00
2022-09-28T10:38:17.421Z,70.12
2022-09-28T10:40:50.127Z,71.29
2022-09-28T10:43:31.356Z,70.15
2022-09-28T10:46:12.727Z,69.68
2022-09-28T10:48:58.423Z,69.49
2022-09-28T10:51:43.489Z,71.99
2022-09-28T10:54:19.204Z,71.87
2022-09-28T10:56:46.838Z,69.85
2022-09-28T10:59:28.691Z,67.47
2022-09-28T11:02:25.972Z,67.04
2022-09-28T11:04:59.143Z,67.47
2022-09-28T11:07:32.310Z,69.80
2022-09-28T11:10:00.797Z,69.69
2022-09-28T11:12:36.991Z,70.26
2022-09-28T11:15:07.117Z,72.19
2022-09-28T11:17:38.823Z,73.95
2022-09-28T11:20:28.446Z,72.77
2022-09-28T11:22:56.565Z,72.90
2022-09-28T11:25:28.477Z,73.03
2022-09-28T11:27:57.941Z,73.87
2022-09-28T11:30:40.658Z,74.62
2022-09-28T11:33:12.451Z,69.22
2022-09-28T11:36:00.316Z,70.32
2022-09-28T11:38:47.743Z,71.03
2022-09-28T11:41:17.242Z,72.23
2022-09-28T11:44:12.301Z,72.42
2022-09-28T11:46:57.208Z,73.09
2022-09-28T11:49:53.335Z,73.90
2022-09-28T11:52:29.238Z,73.02
2022-09-28T11:55:25.270Z,72.97
2022-09-28T11:58:03.878Z,73.71
2022-09-28T12:00:33.968Z,74.15
2022-09-28T12:03:09.391Z,74.52
2022-09-28T12:05:43.922Z,72.60
2022-09-28T12:08:25.358Z,73.18
2022-09-28T12:11:02.568Z,73.99
2022-09-28T12:13:35.227Z,73.77
2022-09-28T12:16:32.807Z,74.01
2022-09-28T12:19:07.026Z,75.56
2022-09-28T12:21:42.048Z,75.48
2022-09-28T12:24:29.453Z,73.90
2022-09-28T12:27:21.562Z,73.57
2022-09-28T12:29:58.461Z,74.16
2022-09-28T12:32:27.912Z,74.01
2022-09-28T12:34:54.982Z,72.05
2022-09-28T12:37:54.695Z,73.92
2022-09-28T12:40:45.807Z,75.53
2022-09-28T12:43:17.541Z,76.46
2022-09-28T12:46:12.007Z,78.47
2022-09-28T12:52:27.228Z,79.95
2022-09-28T12:55:37.938Z,79.17
2022-09-28T12:58:23.507Z,78.94
2022-09-28T13:01:04.467Z,79.03
2022-09-28T13:03:56.150Z,79.58
2022-09-28T13:06:32.425Z,80.45
2022-09-28T13:09:14.621Z,81.41
2022-09-28T13:11:54.831Z,83.78
2022-09-28T13:14:54.059Z,83.42
2022-09-28T13:17:39.620Z,84.16
2022-09-28T13:20:35.730Z,84.58
2022-09-28T13:23:11.410Z,86.66
2022-09-28T13:25:43.566Z,87.74
2022-09-28T13:28:15.527Z,87.99
2022-09-28T13:30:45.038Z,88.18
2022-09-28T13:33:37.986Z,88.36
2022-09-28T13:36:33.226Z,88.55
2022-09-28T13:39:01.417Z,88.96
2022-09-28T13:41:32.874Z,87.93
2022-09-28T13:44:12.482Z,87.00
2022-09-28T13:47:02.655Z,86.46
2022-09-28T13:49:51.356Z,88.22
2022-09-28T13:52:39.933Z,87.57
2022-09-28T13:55:28.929Z,87.34
2022-09-28T13:57:59.029Z,88.10
2022-09-28T14:00:36.567Z,88.33
2022-09-28T14:03:06.347Z,87.26
2022-09-28T14:06:03.271Z,86.74
2022-09-28T14:08:34.567Z,85.90
2022-09-28T14:11:36.897Z,87.19
2022-09-28T14:14:29.305Z,86.62
2022-09-28T14:17:21.288Z,87.41
2022-09-28T14:19:59.212Z,88.14
2022-09-28T14:22:32.452Z,87.51
2022-09-28T14:25:08.166Z,87.13
2022-09-28T14:27:41.803Z,86.25
2022-09-28T14:30:22.240Z,85.25
2022-09-28T14:32:57.004Z,86.35
2022-09-28T14:35:26.672Z,87.56
2022-09-28T14:38:18.035Z,87.67
2022-09-28T14:41:10.534Z,86.45
2022-09-28T14:43:46.204Z,86.24
2022-09-28T14:46:17.085Z,86.67
2022-09-28T14:49:12.201Z,88.22
2022-09-28T14:51:38.851Z,89.38
2022-09-28T14:54:20.499Z,87.98
2022-09-28T14:56:53.101Z,88.35
2022-09-28T14:59:25.108Z,88.05
2022-09-28T15:02:10.978Z,88.80
2022-09-28T15:04:43.802Z,88.57
2022-09-28T15:07:26.847Z,89.45
2022-09-28T15:09:58.256Z,89.63
2022-09-28T15:12:32.328Z,90.32
2022-09-28T15:15:17.499Z,90.50
2022-09-28T15:17:55.922Z,89.66
2022-09-28T15:20:30.373Z,89.12
2022-09-28T15:22:59.197Z,89.10
2022-09-28T15:25:29.754Z,88.60
2022-09-28T15:28:02.922Z,88.77
2022-09-28T15:30:32.168Z,89.00
2022-09-28T15:33:20.305Z,88.89
2022-09-28T15:36:10.563Z,89.55
2022-09-28T15:38:41.246Z,88.35
2022-09-28T15:41:10.315Z,89.34
2022-09-28T15:43:39.701Z,88.52
2022-09-28T15:46:13.517Z,88.27
2022-09-28T15:48:57.122Z,89.68
2022-09-28T15:51:25.398Z,89.60
2022-09-28T15:54:04.203Z,88.89
2022-09-28T15:56:31.542Z,87.25
2022-09-28T15:59:24.424Z,87.12
2022-09-28T16:02:08.197Z,87.11
2022-09-28T16:04:53.008Z,87.28
2022-09-28T16:07:33.444Z,88.64
2022-09-28T16:10:12.537Z,87.86
2022-09-28T16:12:56.586Z,88.28
2022-09-28T16:15:32.585Z,87.47
2022-09-28T16:18:02.870Z,89.47
2022-09-28T16:20:39.743Z,90.34
2022-09-28T16:23:21.013Z,90.43
2022-09-28T16:25:52.878Z,90.12
2022-09-28T16:28:37.925Z,90.50
2022-09-28T16:31:14.649Z,91.10
2022-09-28T16:33:52.177Z,91.44
2022-09-28T16:36:18.821Z,91.79
2022-09-28T16:38:46.575Z,92.27
2022-09-28T16:41:16.274Z,92.41
2022-09-28T16:43:43.009Z,92.25
2022-09-28T16:46:17.466Z,92.59
2022-09-28T16:48:49.426Z,92.88
2022-09-28T16:51:21.722Z,92.79
2022-09-28T16:54:07.458Z,92.89
2022-09-28T16:56:36.098Z,93.06
2022-09-28T16:59:03.833Z,92.69
2022-09-28T17:01:31.304Z,93.06
2022-09-28T17:03:58.348Z,93.04
2022-09-28T17:06:25.584Z,93.27
2022-09-28T17:08:52.736Z,93.15
2022-09-28T17:11:24.168Z,93.40
2022-09-28T17:13:51.837Z,93.46
2022-09-28T17:16:37.060Z,93.57
2022-09-28T17:19:23.966Z,93.83
2022-09-28T17:21:52.077Z,94.12
2022-09-28T17:24:19.778Z,93.99
2022-09-28T17:26:49.108Z,94.01
2022-09-28T17:29:17.311Z,94.06
2022-09-28T17:31:46.593Z,94.13
2022-09-28T17:34:16.199Z,94.25
2022-09-28T17:36:44.729Z,94.20
2022-09-28T17:39:17.123Z,94.35
2022-09-28T17:41:43.920Z,94.29
2022-09-28T17:44:13.949Z,94.23
2022-09-28T17:46:49.067Z,94.46
2022-09-28T17:49:16.843Z,94.62
2022-09-28T17:51:43.737Z,94.65
2022-09-28T17:54:11.033Z,94.87
2022-09-28T17:56:38.062Z,94.89
2022-09-28T17:59:07.618Z,95.15
2022-09-28T18:01:34.900Z,95.10
2022-09-28T18:04:15.915Z,95.08
2022-09-28T18:06:54.703Z,95.07
2022-09-28T18:09:25.422Z,95.10
2022-09-28T18:12:00.185Z,94.98
2022-09-28T18:14:27.084Z,94.85
2022-09-28T18:16:53.714Z,94.83
2022-09-28T18:19:20.465Z,94.91
2022-09-28T18:21:48.289Z,95.00
2022-09-28T18:24:15.320Z,94.98
2022-09-28T18:26:41.924Z,95.12
2022-09-28T18:29:08.673Z,95.16
2022-09-28T18:31:36.922Z,95.16
2022-09-28T18:34:03.847Z,95.19
2022-09-28T18:36:32.008Z,95.13
2022-09-28T18:39:01.475Z,95.28
2022-09-28T18:41:29.276Z,95.05
2022-09-28T18:44:00.617Z,95.04
2022-09-28T18:46:28.891Z,95.20
2022-09-28T18:48:56.065Z,95.21
2022-09-28T18:51:23.101Z,95.15
2022-09-28T18:53:50.212Z,95.17
2022-09-28T18:56:18.388Z,95.25
2022-09-28T18:58:46.120Z,95.21
2022-09-28T19:01:29.816Z,95.20
2022-09-28T19:04:01.968Z,95.28
2022-09-28T19:06:29.740Z,95.43
2022-09-28T19:08:56.867Z,95.36
2022-09-28T19:11:25.382Z,95.26
2022-09-28T19:13:54.143Z,95.26
2022-09-28T19:16:24.127Z,95.20
2022-09-28T19:18:53.577Z,95.30
2022-09-28T19:21:21.312Z,95.43
2022-09-28T19:23:49.670Z,95.62
2022-09-28T19:26:21.007Z,95.33
2022-09-28T19:28:48.842Z,95.22
2022-09-28T19:31:16.389Z,95.22
2022-09-28T19:33:46.432Z,95.16
2022-09-28T19:36:19.635Z,95.08
2022-09-28T19:38:47.974Z,95.19
2022-09-28T19:41:43.508Z,95.07
2022-09-28T19:44:24.301Z,93.99
2022-09-28T19:46:55.369Z,93.66
2022-09-28T19:49:23.451Z,93.40
2022-09-28T19:52:13.908Z,93.06
2022-09-28T19:54:45.931Z,93.72
2022-09-28T19:57:14.413Z,94.33
2022-09-28T19:59:41.340Z,94.20
2022-09-28T20:02:10.557Z,94.57
2022-09-28T20:04:37.280Z,94.65
2022-09-28T20:07:04.996Z,94.81
2022-09-28T20:09:32.568Z,95.02
2022-09-28T20:11:59.346Z,94.91
2022-09-28T20:14:32.040Z,95.10
2022-09-28T20:17:03.395Z,94.92
2022-09-28T20:19:30.110Z,94.83
2022-09-28T20:21:59.450Z,94.80
2022-09-28T20:24:28.687Z,94.83
2022-09-28T20:26:55.878Z,94.61
2022-09-28T20:29:24.306Z,94.61
2022-09-28T20:31:51.756Z,94.69
2022-09-28T20:34:18.585Z,94.52
2022-09-28T20:36:45.412Z,93.75
2022-09-28T20:39:12.784Z,93.38
2022-09-28T20:41:40.327Z,93.11
2022-09-28T20:44:07.303Z,92.73
2022-09-28T20:46:35.524Z,92.53
2022-09-28T20:49:03.132Z,92.55
2022-09-28T20:51:29.922Z,91.99
2022-09-28T20:53:58.845Z,92.23
2022-09-28T20:56:39.456Z,92.05
2022-09-28T20:59:13.442Z,92.17
2022-09-28T21:01:40.746Z,92.21
2022-09-28T21:04:08.910Z,91.46
2022-09-28T21:06:38.795Z,91.87
2022-09-28T21:09:07.256Z,92.11
2022-09-28T21:11:35.700Z,92.66
2022-09-28T21:14:05.649Z,92.63
2022-09-28T21:16:34.973Z,92.62
2022-09-28T21:19:02.791Z,92.30
2022-09-28T21:21:30.216Z,92.34
2022-09-28T21:23:58.130Z,92.11
2022-09-28T21:26:28.135Z,92.14
2022-09-28T21:29:00.206Z,92.23
2022-09-28T21:31:30.104Z,92.13
2022-09-28T21:33:58.150Z,91.89
2022-09-28T21:36:25.485Z,91.64
2022-09-28T21:38:53.466Z,91.97
2022-09-28T21:41:20.202Z,92.19
2022-09-28T21:43:46.885Z,92.51
2022-09-28T21:46:13.692Z,92.63
2022-09-28T21:48:40.406Z,92.26
2022-09-28T21:51:09.199Z,92.37
2022-09-28T21:53:37.680Z,92.24
2022-09-28T21:56:07.366Z,92.21
2022-09-28T21:58:35.639Z,92.41
2022-09-28T22:01:05.323Z,92.40
2022-09-28T22:03:33.460Z,92.53
2022-09-28T22:06:00.205Z,93.31
2022-09-28T22:08:27.122Z,93.62
2022-09-28T22:11:06.141Z,95.36
2022-09-28T22:13:35.620Z,94.40
2022-09-28T22:16:03.125Z,94.52
2022-09-28T22:18:31.397Z,94.69
2022-09-28T22:21:07.316Z,94.49
2022-09-28T22:23:34.700Z,94.40
2022-09-28T22:26:05.497Z,94.46
2022-09-28T22:28:32.410Z,95.04
2022-09-28T22:30:59.655Z,93.97
2022-09-28T22:33:26.761Z,93.59
2022-09-28T22:35:55.166Z,93.69
2022-09-28T22:38:24.197Z,93.91
2022-09-28T22:40:53.373Z,94.23
2022-09-28T22:43:20.729Z,94.27
2022-09-28T22:45:47.420Z,94.33
2022-09-28T22:48:14.192Z,94.33
2022-09-28T22:50:51.063Z,94.29
2022-09-28T22:53:18.828Z,94.18
2022-09-28T22:55:45.621Z,94.34
2022-09-28T22:58:12.344Z,94.69
2022-09-28T23:00:39.371Z,94.66
2022-09-28T23:03:06.165Z,94.53
2022-09-28T23:05:32.972Z,94.75
2022-09-28T23:07:59.709Z,94.98
2022-09-28T23:10:26.709Z,94.82
2022-09-28T23:12:54.059Z,95.96
2022-09-28T23:15:21.667Z,95.10
2022-09-28T23:17:52.969Z,95.11
2022-09-28T23:20:23.787Z,95.15
2022-09-28T23:22:50.922Z,95.24
2022-09-28T23:25:19.189Z,95.30
2022-09-28T23:27:47.853Z,95.30
2022-09-28T23:30:16.002Z,95.32
2022-09-28T23:32:42.683Z,95.27
2022-09-28T23:35:10.058Z,95.31
2022-09-28T23:37:37.753Z,95.36
2022-09-28T23:40:06.154Z,95.43
2022-09-28T23:42:34.823Z,95.38
2022-09-28T23:45:01.765Z,95.39
2022-09-28T23:47:28.631Z,95.51
2022-09-28T23:49:55.280Z,95.30
2022-09-28T23:52:22.074Z,95.49
2022-09-28T23:54:48.822Z,95.42
2022-09-28T23:57:15.742Z,95.36
2022-09-28T23:59:42.482Z,95.59
